Airfield :
LOGIN :

Register | Disclaimer

   EN    FR    IT 

 










Legend :    VFR   Marginal VFR   IFR   Intensive IFR   Very Intensive IFR
Visi :
Ceiling :
>= 8 km
>= 3000ft
5 to 8 km
1000 to 3000 ft
1500m to 5 km
500 to 1000 ft
800 to 1500m
200 to 500 ft
< 800m
< 200 ft
Symbols :   Thunderstorms  Fog  Heavy snow  Heavy precipitations  Wind > 20 kt
SIGMETs :     Misc.  Thunderstorms  Icing  Turbulence  Mountain Waves  Volcanic Ashes






- Airport Elevation : 124 ft
- IATA code : NHT


EGWU - RAF Northolt

CURRENT METAR :
  • 152121Z 20008KT 9999 SCT045 SCT110 07/05 Q0998 TEMPO 6000 SHRA SCT018CB RMK BLU TEMPO WHT

EXPIRED METARs :
  • 152050Z 22013G27KT 9999 FEW018CB BKN035 07/05 Q0999 RESHRA TEMPO 6000 SHRA SCT018CB RMK BLU TEMPO WHT
  • 152028Z 23008KT 6000 SHRA SCT018CB BKN035 07/06 Q0999 BECMG 9999 NSW FEW018CB RMK WHT BECMG BLU
  • 152020Z 22008KT 9999 -SHRA SCT028 BKN035 08/05 Q0998 TEMPO 7000 SHRA RMK BLU TEMPO WHT
  • 151950Z 20009KT 9999 FEW035 BKN120 07/06 Q0998 RESHRA TEMPO 7000 SHRA RMK BLU TEMPO WHT
  • 151920Z 21010KT 9999 FEW035 BKN120 07/05 Q0998 RESHRA TEMPO 7000 SHRA RMK BLU TEMPO WHT
  • 151901Z 22013KT 7000 SHRA FEW014 BKN035 BKN120 08/06 Q0998 BECMG 9999 NSW RMK WHT BECMG BLU

TAF TAF EGWU
Valid from the 15 at 21:00 until the 16 at 15:00 UTC


151924Z 1521/1615 21012KT 9999 FEW040
PROB40
TEMPO 1521/1524 7000 SHRA
PROB30
TEMPO 1521/1524 22015G25KT 4000 +TSRA SCT012 BKN018CB



MET'MAP, your aeronautical weather chart ! - Copyright ORBIFLY December 2007 - Disclaimer

ORBIFLY MET'MAP TEAM :

Programming & Development : Alexandra Zaïnal
Concept & original design : Baudouin d'Aumeries
Assistance for programming : Marc-Olivier Méhu
Technical & hardware support : Manuel Goepfert

Contact : metmap@orbifly.com




SOURCES & CREDITS :

   NOAA